sensor_id;sensor_type;location;lat;lon;timestamp;pressure;altitude;pressure_sealevel;temperature;humidity
57799;BME280;43626;53.866;30.298;2023-07-16T00:00:43;1025;;;17.1;52.3
57799;BME280;43626;53.866;30.298;2023-07-16T00:05:09;1025;;;17;52.5
57799;BME280;43626;53.866;30.298;2023-07-16T00:10:29;1025;;;17;52.6
57799;BME280;43626;53.866;30.298;2023-07-16T00:15:51;1025;;;16.9;52.6
57799;BME280;43626;53.866;30.298;2023-07-16T00:20:09;1025;;;16.8;52.5
57799;BME280;43626;53.866;30.298;2023-07-16T00:25:09;1024.9;;;16.8;52.6
57799;BME280;43626;53.866;30.298;2023-07-16T00:30:37;1025;;;16.7;52.5
57799;BME280;43626;53.866;30.298;2023-07-16T00:35:46;1024.9;;;16.7;52.5
57799;BME280;43626;53.866;30.298;2023-07-16T00:40:51;1024.9;;;16.6;52.5
57799;BME280;43626;53.866;30.298;2023-07-16T00:45:23;1025;;;16.5;52.7
57799;BME280;43626;53.866;30.298;2023-07-16T00:50:17;1025;;;16.4;52.8
57799;BME280;43626;53.866;30.298;2023-07-16T00:55:11;1025;;;16.3;53
57799;BME280;43626;53.866;30.298;2023-07-16T01:00:45;1025;;;16.3;53.3
57799;BME280;43626;53.866;30.298;2023-07-16T01:05:53;1025;;;16.2;53.3
57799;BME280;43626;53.866;30.298;2023-07-16T01:10:51;1025;;;16.2;53
57799;BME280;43626;53.866;30.298;2023-07-16T01:15:51;1025.1;;;16.1;53
57799;BME280;43626;53.866;30.298;2023-07-16T01:20:37;1025.1;;;16.1;53.2
57799;BME280;43626;53.866;30.298;2023-07-16T01:25:35;1025.1;;;16;53.1
57799;BME280;43626;53.866;30.298;2023-07-16T01:30:11;1025.1;;;16;53.2
57799;BME280;43626;53.866;30.298;2023-07-16T01:35:51;1025.1;;;16;53.1
57799;BME280;43626;53.866;30.298;2023-07-16T01:40:49;1025.2;;;15.9;53.3
57799;BME280;43626;53.866;30.298;2023-07-16T01:45:51;1025.1;;;15.8;53.5
57799;BME280;43626;53.866;30.298;2023-07-16T01:50:51;1025.2;;;15.8;53.7
57799;BME280;43626;53.866;30.298;2023-07-16T01:55:37;1025.2;;;15.7;53.9
57799;BME280;43626;53.866;30.298;2023-07-16T02:00:45;1025.3;;;15.7;53.8
57799;BME280;43626;53.866;30.298;2023-07-16T02:05:17;1025.3;;;15.7;53.9
57799;BME280;43626;53.866;30.298;2023-07-16T02:10:31;1025.3;;;15.7;53.7
57799;BME280;43626;53.866;30.298;2023-07-16T02:15:51;1025.3;;;15.7;53.8
57799;BME280;43626;53.866;30.298;2023-07-16T02:20:31;1025.3;;;15.6;53.9
57799;BME280;43626;53.866;30.298;2023-07-16T02:25:29;1025.4;;;15.6;54
57799;BME280;43626;53.866;30.298;2023-07-16T02:30:09;1025.4;;;15.6;54
57799;BME280;43626;53.866;30.298;2023-07-16T02:35:09;1025.4;;;15.6;54
57799;BME280;43626;53.866;30.298;2023-07-16T02:40:15;1025.4;;;15.6;54.2
57799;BME280;43626;53.866;30.298;2023-07-16T02:45:07;1025.4;;;15.6;54.7
57799;BME280;43626;53.866;30.298;2023-07-16T02:50:23;1025.5;;;15.7;55.9
57799;BME280;43626;53.866;30.298;2023-07-16T02:55:49;1025.5;;;15.7;56.6
57799;BME280;43626;53.866;30.298;2023-07-16T03:00:27;1025.6;;;15.7;56.9
57799;BME280;43626;53.866;30.298;2023-07-16T03:05:11;1025.6;;;15.9;56.7
57799;BME280;43626;53.866;30.298;2023-07-16T03:10:19;1025.6;;;16;56.5
57799;BME280;43626;53.866;30.298;2023-07-16T03:15:07;1025.7;;;16.2;56.4
57799;BME280;43626;53.866;30.298;2023-07-16T03:20:21;1025.7;;;16.3;56.2
57799;BME280;43626;53.866;30.298;2023-07-16T03:25:43;1025.7;;;16.4;56.1
57799;BME280;43626;53.866;30.298;2023-07-16T03:30:51;1025.8;;;16.6;55.9
57799;BME280;43626;53.866;30.298;2023-07-16T03:35:09;1025.8;;;16.8;55.7
57799;BME280;43626;53.866;30.298;2023-07-16T03:40:27;1025.9;;;16.9;55.3
57799;BME280;43626;53.866;30.298;2023-07-16T03:45:27;1025.9;;;17.1;54.5
57799;BME280;43626;53.866;30.298;2023-07-16T03:50:17;1025.9;;;17.4;53.7
57799;BME280;43626;53.866;30.298;2023-07-16T03:55:09;1025.9;;;17.5;53.8
57799;BME280;43626;53.866;30.298;2023-07-16T04:00:29;1025.9;;;17.6;54.2
57799;BME280;43626;53.866;30.298;2023-07-16T04:05:39;1025.9;;;17.7;53.5
57799;BME280;43626;53.866;30.298;2023-07-16T04:10:37;1025.9;;;17.9;53.3
57799;BME280;43626;53.866;30.298;2023-07-16T04:15:09;1025.9;;;18.1;53
57799;BME280;43626;53.866;30.298;2023-07-16T04:20:53;1025.9;;;18.4;52.7
57799;BME280;43626;53.866;30.298;2023-07-16T04:25:53;1025.9;;;18.7;52.2
57799;BME280;43626;53.866;30.298;2023-07-16T04:30:25;1025.9;;;18.9;51.6
57799;BME280;43626;53.866;30.298;2023-07-16T04:35:29;1025.9;;;19.1;51.1
57799;BME280;43626;53.866;30.298;2023-07-16T04:40:53;1026;;;19.2;50
57799;BME280;43626;53.866;30.298;2023-07-16T04:45:09;1025.9;;;19.4;49.8
57799;BME280;43626;53.866;30.298;2023-07-16T04:50:17;1026;;;19.6;49.3
57799;BME280;43626;53.866;30.298;2023-07-16T04:55:37;1026;;;19.8;48.7
57799;BME280;43626;53.866;30.298;2023-07-16T05:00:09;1026;;;20;48.2
57799;BME280;43626;53.866;30.298;2023-07-16T05:05:53;1026.1;;;20.2;48.2
57799;BME280;43626;53.866;30.298;2023-07-16T05:10:27;1026.1;;;20.4;48.2
57799;BME280;43626;53.866;30.298;2023-07-16T05:15:09;1026.1;;;20.5;47.8
57799;BME280;43626;53.866;30.298;2023-07-16T05:20:09;1026.1;;;20.6;47.2
57799;BME280;43626;53.866;30.298;2023-07-16T05:25:33;1026.1;;;20.7;46.8
57799;BME280;43626;53.866;30.298;2023-07-16T05:30:13;1026.1;;;20.8;46.4
57799;BME280;43626;53.866;30.298;2023-07-16T05:35:43;1026.1;;;20.8;46
57799;BME280;43626;53.866;30.298;2023-07-16T05:40:53;1026.1;;;20.9;45.3
57799;BME280;43626;53.866;30.298;2023-07-16T05:45:37;1026.1;;;21;45.6
57799;BME280;43626;53.866;30.298;2023-07-16T05:50:09;1026.1;;;21.1;45.4
57799;BME280;43626;53.866;30.298;2023-07-16T05:55:23;1026.1;;;21.3;44.4
57799;BME280;43626;53.866;30.298;2023-07-16T06:00:53;1026.2;;;21.5;43.1
57799;BME280;43626;53.866;30.298;2023-07-16T06:05:53;1026.2;;;21.5;42.9
57799;BME280;43626;53.866;30.298;2023-07-16T06:10:53;1026.2;;;21.7;42.2
57799;BME280;43626;53.866;30.298;2023-07-16T06:15:53;1026.2;;;21.8;41.8
57799;BME280;43626;53.866;30.298;2023-07-16T06:20:31;1026.1;;;21.9;41.6
57799;BME280;43626;53.866;30.298;2023-07-16T06:25:09;1026.1;;;22.1;41.2
57799;BME280;43626;53.866;30.298;2023-07-16T06:30:15;1026.1;;;22.2;39.9
57799;BME280;43626;53.866;30.298;2023-07-16T06:35:33;1026.1;;;22.2;39.2
57799;BME280;43626;53.866;30.298;2023-07-16T06:40:53;1026;;;22.4;38.6
57799;BME280;43626;53.866;30.298;2023-07-16T06:45:39;1026;;;22.5;37.1
57799;BME280;43626;53.866;30.298;2023-07-16T06:50:29;1026.1;;;22.6;36.6
57799;BME280;43626;53.866;30.298;2023-07-16T06:55:09;1026.1;;;22.7;37.3
57799;BME280;43626;53.866;30.298;2023-07-16T07:00:11;1026.1;;;22.9;36.7
57799;BME280;43626;53.866;30.298;2023-07-16T07:05:17;1026.1;;;23;35.7
57799;BME280;43626;53.866;30.298;2023-07-16T07:10:23;1026.1;;;23;35.6
57799;BME280;43626;53.866;30.298;2023-07-16T07:15:33;1026.1;;;23.1;35.1
57799;BME280;43626;53.866;30.298;2023-07-16T07:20:53;1026;;;23.2;34.9
57799;BME280;43626;53.866;30.298;2023-07-16T07:25:09;1026;;;23.3;34.4
57799;BME280;43626;53.866;30.298;2023-07-16T07:30:09;1026;;;23.4;34
57799;BME280;43626;53.866;30.298;2023-07-16T07:35:33;1026;;;23.5;33.9
57799;BME280;43626;53.866;30.298;2023-07-16T07:40:18;1026;;;23.7;33.7
57799;BME280;43626;53.866;30.298;2023-07-16T07:45:31;1026.1;;;23.8;33.4
57799;BME280;43626;53.866;30.298;2023-07-16T07:50:45;1026.1;;;23.9;33.7
57799;BME280;43626;53.866;30.298;2023-07-16T07:55:53;1026.1;;;24.1;33.9
57799;BME280;43626;53.866;30.298;2023-07-16T08:00:09;1026.1;;;24.2;34
57799;BME280;43626;53.866;30.298;2023-07-16T08:05:47;1026.1;;;24.3;33.7
57799;BME280;43626;53.866;30.298;2023-07-16T08:10:54;1026;;;24.3;33.3
57799;BME280;43626;53.866;30.298;2023-07-16T08:15:45;1025.9;;;24.4;33.2
57799;BME280;43626;53.866;30.298;2023-07-16T08:20:21;1025.9;;;24.4;33
57799;BME280;43626;53.866;30.298;2023-07-16T08:25:09;1025.8;;;24.4;32.3
57799;BME280;43626;53.866;30.298;2023-07-16T08:30:46;1025.8;;;24.4;32.1
57799;BME280;43626;53.866;30.298;2023-07-16T08:35:09;1025.8;;;24.6;32.1
57799;BME280;43626;53.866;30.298;2023-07-16T08:40:10;1025.7;;;24.7;32.4
57799;BME280;43626;53.866;30.298;2023-07-16T08:45:53;1025.7;;;24.7;31.7
57799;BME280;43626;53.866;30.298;2023-07-16T08:50:45;1025.6;;;24.8;31.5
57799;BME280;43626;53.866;30.298;2023-07-16T08:55:09;1025.6;;;24.9;31.7
57799;BME280;43626;53.866;30.298;2023-07-16T09:00:29;1025.6;;;25;32.3
57799;BME280;43626;53.866;30.298;2023-07-16T09:05:53;1025.6;;;25.1;32
57799;BME280;43626;53.866;30.298;2023-07-16T09:10:19;1025.6;;;25.2;31.9
57799;BME280;43626;53.866;30.298;2023-07-16T09:15:37;1025.5;;;25.3;32.1
57799;BME280;43626;53.866;30.298;2023-07-16T09:20:39;1025.5;;;25.4;31.6
57799;BME280;43626;53.866;30.298;2023-07-16T09:25:45;1025.5;;;25.5;30.8
57799;BME280;43626;53.866;30.298;2023-07-16T09:30:53;1025.5;;;25.5;31.1
57799;BME280;43626;53.866;30.298;2023-07-16T09:35:29;1025.4;;;25.6;30.9
57799;BME280;43626;53.866;30.298;2023-07-16T09:40:10;1025.3;;;25.6;30.9
57799;BME280;43626;53.866;30.298;2023-07-16T09:45:23;1025.2;;;25.6;30
57799;BME280;43626;53.866;30.298;2023-07-16T09:50:52;1025.2;;;25.7;30.7
57799;BME280;43626;53.866;30.298;2023-07-16T09:55:37;1025.2;;;25.9;31.5
57799;BME280;43626;53.866;30.298;2023-07-16T10:00:53;1025.2;;;26.1;31.8
57799;BME280;43626;53.866;30.298;2023-07-16T10:05:53;1025.2;;;26.2;31.1
57799;BME280;43626;53.866;30.298;2023-07-16T10:10:38;1025.2;;;26.2;30.2
57799;BME280;43626;53.866;30.298;2023-07-16T10:15:51;1025.1;;;26.2;29.7
57799;BME280;43626;53.866;30.298;2023-07-16T10:20:31;1025.1;;;26.1;29.3
57799;BME280;43626;53.866;30.298;2023-07-16T10:25:59;1025.1;;;26.2;28.6
57799;BME280;43626;53.866;30.298;2023-07-16T10:30:51;1025.1;;;26.2;28.4
57799;BME280;43626;53.866;30.298;2023-07-16T10:35:10;1025;;;26.3;28.1
57799;BME280;43626;53.866;30.298;2023-07-16T10:40:51;1024.9;;;26.4;27.8
57799;BME280;43626;53.866;30.298;2023-07-16T10:45:23;1024.9;;;26.5;27.6
57799;BME280;43626;53.866;30.298;2023-07-16T10:50:11;1024.9;;;26.5;27.5
57799;BME280;43626;53.866;30.298;2023-07-16T10:55:15;1024.8;;;26.6;27.8
57799;BME280;43626;53.866;30.298;2023-07-16T11:00:31;1024.8;;;26.6;27.7
57799;BME280;43626;53.866;30.298;2023-07-16T11:05:25;1024.8;;;26.8;27.8
57799;BME280;43626;53.866;30.298;2023-07-16T11:10:37;1024.8;;;26.9;27.9
57799;BME280;43626;53.866;30.298;2023-07-16T11:15:11;1024.8;;;27;27.9
57799;BME280;43626;53.866;30.298;2023-07-16T11:20:11;1024.8;;;27.1;27.5
57799;BME280;43626;53.866;30.298;2023-07-16T11:25:11;1024.7;;;27.1;27.8
57799;BME280;43626;53.866;30.298;2023-07-16T11:30:21;1024.7;;;27.2;26.3
57799;BME280;43626;53.866;30.298;2023-07-16T11:35:25;1024.7;;;27.2;25.9
57799;BME280;43626;53.866;30.298;2023-07-16T11:40:53;1024.7;;;27.2;25.8
57799;BME280;43626;53.866;30.298;2023-07-16T11:45:53;1024.6;;;27.3;25.7
57799;BME280;43626;53.866;30.298;2023-07-16T11:50:09;1024.6;;;27.4;26.2
57799;BME280;43626;53.866;30.298;2023-07-16T11:55:09;1024.6;;;27.7;25.9
57799;BME280;43626;53.866;30.298;2023-07-16T12:00:33;1024.6;;;27.8;26.2
57799;BME280;43626;53.866;30.298;2023-07-16T12:05:31;1024.7;;;27.9;26.3
57799;BME280;43626;53.866;30.298;2023-07-16T12:10:23;1024.6;;;27.8;26.3
57799;BME280;43626;53.866;30.298;2023-07-16T12:15:31;1024.6;;;27.9;26.5
57799;BME280;43626;53.866;30.298;2023-07-16T12:20:53;1024.6;;;28;26.1
57799;BME280;43626;53.866;30.298;2023-07-16T12:25:11;1024.5;;;28.1;26
57799;BME280;43626;53.866;30.298;2023-07-16T12:30:53;1024.5;;;28.1;26.1
57799;BME280;43626;53.866;30.298;2023-07-16T12:35:47;1024.4;;;27.8;26.4
57799;BME280;43626;53.866;30.298;2023-07-16T12:40:08;1024.4;;;27.7;26.5
57799;BME280;43626;53.866;30.298;2023-07-16T12:45:09;1024.4;;;27.8;26.6
57799;BME280;43626;53.866;30.298;2023-07-16T12:50:27;1024.4;;;28.1;26.2
57799;BME280;43626;53.866;30.298;2023-07-16T12:55:27;1024.3;;;28.1;26.2
57799;BME280;43626;53.866;30.298;2023-07-16T13:00:33;1024.3;;;28.2;26.2
57799;BME280;43626;53.866;30.298;2023-07-16T14:00:27;1024;;;28.5;25.7
57799;BME280;43626;53.866;30.298;2023-07-16T14:05:27;1024;;;28.7;26.2
57799;BME280;43626;53.866;30.298;2023-07-16T14:10:25;1023.9;;;28.9;25.7
57799;BME280;43626;53.866;30.298;2023-07-16T14:15:53;1024;;;29.3;25.8
57799;BME280;43626;53.866;30.298;2023-07-16T14:20:37;1023.9;;;29.5;25.4
57799;BME280;43626;53.866;30.298;2023-07-16T14:25:44;1023.9;;;29.7;25.5
57799;BME280;43626;53.866;30.298;2023-07-16T14:30:53;1023.9;;;29.8;25.6
57799;BME280;43626;53.866;30.298;2023-07-16T14:35:37;1023.8;;;29.9;25.6
57799;BME280;43626;53.866;30.298;2023-07-16T14:40:11;1023.8;;;30;25.3
57799;BME280;43626;53.866;30.298;2023-07-16T14:45:31;1023.8;;;30.3;24.8
57799;BME280;43626;53.866;30.298;2023-07-16T14:50:53;1023.7;;;30.4;24.4
57799;BME280;43626;53.866;30.298;2023-07-16T14:55:33;1023.6;;;30.4;24.3
57799;BME280;43626;53.866;30.298;2023-07-16T15:00:46;1023.6;;;30.5;24.2
57799;BME280;43626;53.866;30.298;2023-07-16T15:05:55;1023.6;;;30.5;23.8
57799;BME280;43626;53.866;30.298;2023-07-16T15:10:12;1023.5;;;30.6;24
57799;BME280;43626;53.866;30.298;2023-07-16T15:15:10;1023.5;;;30.9;24.2
57799;BME280;43626;53.866;30.298;2023-07-16T15:20:17;1023.5;;;31;23.8
57799;BME280;43626;53.866;30.298;2023-07-16T15:25:33;1023.5;;;31.2;24
57799;BME280;43626;53.866;30.298;2023-07-16T15:30:33;1023.5;;;31.2;24.2
57799;BME280;43626;53.866;30.298;2023-07-16T15:35:37;1023.4;;;31.1;24.1
57799;BME280;43626;53.866;30.298;2023-07-16T15:40:31;1023.5;;;31.2;24.5
57799;BME280;43626;53.866;30.298;2023-07-16T15:45:10;1023.5;;;31.5;25
57799;BME280;43626;53.866;30.298;2023-07-16T15:50:10;1023.5;;;31.7;24.4
57799;BME280;43626;53.866;30.298;2023-07-16T15:55:18;1023.4;;;32;24.8
57799;BME280;43626;53.866;30.298;2023-07-16T16:00:24;1023.4;;;32.4;24.5
57799;BME280;43626;53.866;30.298;2023-07-16T16:05:33;1023.4;;;32.8;24.1
57799;BME280;43626;53.866;30.298;2023-07-16T16:10:53;1023.3;;;33.1;24.5
57799;BME280;43626;53.866;30.298;2023-07-16T16:15:18;1023.3;;;33.4;24.1
57799;BME280;43626;53.866;30.298;2023-07-16T16:20:10;1023.2;;;33.7;23.8
57799;BME280;43626;53.866;30.298;2023-07-16T16:25:28;1023.2;;;33.9;23.6
57799;BME280;43626;53.866;30.298;2023-07-16T16:30:18;1023.2;;;34;22.9
57799;BME280;43626;53.866;30.298;2023-07-16T16:35:26;1023.2;;;34;22.6
57799;BME280;43626;53.866;30.298;2023-07-16T16:40:46;1023.2;;;34.2;22.5
57799;BME280;43626;53.866;30.298;2023-07-16T16:45:54;1023.2;;;34.3;22.5
57799;BME280;43626;53.866;30.298;2023-07-16T16:50:10;1023.2;;;34.2;22.7
57799;BME280;43626;53.866;30.298;2023-07-16T16:55:30;1023.2;;;33.9;22.9
57799;BME280;43626;53.866;30.298;2023-07-16T17:00:54;1023.2;;;33.7;23.4
57799;BME280;43626;53.866;30.298;2023-07-16T17:05:10;1023.2;;;33.5;23.6
57799;BME280;43626;53.866;30.298;2023-07-16T17:10:26;1023.2;;;33.2;23.9
57799;BME280;43626;53.866;30.298;2023-07-16T17:15:38;1023.2;;;33;24.5
57799;BME280;43626;53.866;30.298;2023-07-16T17:20:44;1023.3;;;32.9;24.6
57799;BME280;43626;53.866;30.298;2023-07-16T17:25:16;1023.3;;;32.9;25
57799;BME280;43626;53.866;30.298;2023-07-16T17:30:10;1023.2;;;32.8;25.5
57799;BME280;43626;53.866;30.298;2023-07-16T17:35:54;1023.2;;;32.6;26.1
57799;BME280;43626;53.866;30.298;2023-07-16T17:40:44;1023.3;;;32.2;26.8
57799;BME280;43626;53.866;30.298;2023-07-16T17:45:26;1023.2;;;31.7;27.7
57799;BME280;43626;53.866;30.298;2023-07-16T17:50:38;1023.2;;;31.2;29.7
57799;BME280;43626;53.866;30.298;2023-07-16T17:55:54;1023.3;;;30.5;31.3
57799;BME280;43626;53.866;30.298;2023-07-16T18:00:12;1023.3;;;29.7;32.9
57799;BME280;43626;53.866;30.298;2023-07-16T18:05:10;1023.3;;;28.8;34.5
57799;BME280;43626;53.866;30.298;2023-07-16T18:10:36;1023.4;;;28.1;36.3
57799;BME280;43626;53.866;30.298;2023-07-16T18:15:12;1023.3;;;27.5;37.3
57799;BME280;43626;53.866;30.298;2023-07-16T18:20:56;1023.3;;;27;37.7
57799;BME280;43626;53.866;30.298;2023-07-16T18:25:16;1023.4;;;26.6;38.5
57799;BME280;43626;53.866;30.298;2023-07-16T18:30:58;1023.4;;;26.1;39.6
57799;BME280;43626;53.866;30.298;2023-07-16T18:35:10;1023.5;;;25.7;40.4
57799;BME280;43626;53.866;30.298;2023-07-16T18:40:58;1023.5;;;25.4;41.2
57799;BME280;43626;53.866;30.298;2023-07-16T18:45:58;1023.4;;;25.1;42
57799;BME280;43626;53.866;30.298;2023-07-16T18:50:58;1023.5;;;24.8;43.5
57799;BME280;43626;53.866;30.298;2023-07-16T18:55:58;1023.5;;;24.5;44.2
57799;BME280;43626;53.866;30.298;2023-07-16T19:00:34;1023.5;;;24.3;44.6
57799;BME280;43626;53.866;30.298;2023-07-16T19:05:10;1023.5;;;24.1;45.5
57799;BME280;43626;53.866;30.298;2023-07-16T19:10:36;1023.5;;;23.8;46.2
57799;BME280;43626;53.866;30.298;2023-07-16T19:15:58;1023.5;;;23.6;46.6
57799;BME280;43626;53.866;30.298;2023-07-16T19:20:38;1023.6;;;23.4;46.6
57799;BME280;43626;53.866;30.298;2023-07-16T19:25:18;1023.5;;;23.2;46.8
57799;BME280;43626;53.866;30.298;2023-07-16T19:30:58;1023.6;;;23.1;47.1
57799;BME280;43626;53.866;30.298;2023-07-16T19:35:50;1023.6;;;22.9;47.5
57799;BME280;43626;53.866;30.298;2023-07-16T19:40:46;1023.6;;;22.8;47.7
57799;BME280;43626;53.866;30.298;2023-07-16T19:45:16;1023.6;;;22.7;48.4
57799;BME280;43626;53.866;30.298;2023-07-16T19:50:38;1023.6;;;22.5;49.2
57799;BME280;43626;53.866;30.298;2023-07-16T19:55:38;1023.6;;;22.4;49.5
57799;BME280;43626;53.866;30.298;2023-07-16T20:00:58;1023.7;;;22.3;50.2
57799;BME280;43626;53.866;30.298;2023-07-16T20:05:35;1023.7;;;22.2;50.5
57799;BME280;43626;53.866;30.298;2023-07-16T20:10:10;1023.7;;;22.1;50.8
57799;BME280;43626;53.866;30.298;2023-07-16T20:15:58;1023.7;;;22;50.6
57799;BME280;43626;53.866;30.298;2023-07-16T20:20:22;1023.6;;;21.9;50.6
57799;BME280;43626;53.866;30.298;2023-07-16T20:25:30;1023.7;;;21.8;50.6
57799;BME280;43626;53.866;30.298;2023-07-16T20:30:18;1023.7;;;21.7;51.1
57799;BME280;43626;53.866;30.298;2023-07-16T20:35:58;1023.7;;;21.6;51.5
57799;BME280;43626;53.866;30.298;2023-07-16T20:40:28;1023.7;;;21.5;51.7
57799;BME280;43626;53.866;30.298;2023-07-16T20:45:11;1023.7;;;21.4;52.4
57799;BME280;43626;53.866;30.298;2023-07-16T20:50:38;1023.7;;;21.3;52.6
57799;BME280;43626;53.866;30.298;2023-07-16T20:55:22;1023.7;;;21.1;52.9
57799;BME280;43626;53.866;30.298;2023-07-16T21:00:30;1023.7;;;21.1;53.1
57799;BME280;43626;53.866;30.298;2023-07-16T21:05:32;1023.8;;;21;53
57799;BME280;43626;53.866;30.298;2023-07-16T21:10:58;1023.7;;;20.9;53.3
57799;BME280;43626;53.866;30.298;2023-07-16T21:15:10;1023.7;;;20.8;53.1
57799;BME280;43626;53.866;30.298;2023-07-16T21:20:10;1023.6;;;20.8;53.1
57799;BME280;43626;53.866;30.298;2023-07-16T21:25:34;1023.7;;;20.7;53.1
57799;BME280;43626;53.866;30.298;2023-07-16T21:30:16;1023.7;;;20.6;53.1
57799;BME280;43626;53.866;30.298;2023-07-16T21:35:10;1023.7;;;20.6;53.1
57799;BME280;43626;53.866;30.298;2023-07-16T21:40:26;1023.6;;;20.5;53.1
57799;BME280;43626;53.866;30.298;2023-07-16T21:45:32;1023.6;;;20.4;53.6
57799;BME280;43626;53.866;30.298;2023-07-16T21:50:16;1023.6;;;20.2;54.4
57799;BME280;43626;53.866;30.298;2023-07-16T21:55:10;1023.6;;;20.2;54.8
57799;BME280;43626;53.866;30.298;2023-07-16T22:00:12;1023.6;;;20.1;55.1
57799;BME280;43626;53.866;30.298;2023-07-16T22:05:48;1023.6;;;20;55
57799;BME280;43626;53.866;30.298;2023-07-16T22:10:30;1023.6;;;19.9;55.3
57799;BME280;43626;53.866;30.298;2023-07-16T22:15:34;1023.6;;;19.8;55.2
57799;BME280;43626;53.866;30.298;2023-07-16T22:20:58;1023.6;;;19.7;55.5
57799;BME280;43626;53.866;30.298;2023-07-16T22:25:30;1023.7;;;19.7;55.5
57799;BME280;43626;53.866;30.298;2023-07-16T22:30:22;1023.7;;;19.7;55.6
57799;BME280;43626;53.866;30.298;2023-07-16T22:35:42;1023.7;;;19.6;55.9
57799;BME280;43626;53.866;30.298;2023-07-16T22:40:44;1023.7;;;19.6;55.9
57799;BME280;43626;53.866;30.298;2023-07-16T22:45:58;1023.7;;;19.6;55.9
57799;BME280;43626;53.866;30.298;2023-07-16T22:50:42;1023.7;;;19.6;56.1
57799;BME280;43626;53.866;30.298;2023-07-16T22:55:16;1023.8;;;19.5;56.3
57799;BME280;43626;53.866;30.298;2023-07-16T23:00:44;1023.8;;;19.5;56.1
57799;BME280;43626;53.866;30.298;2023-07-16T23:05:58;1023.8;;;19.4;56.2
57799;BME280;43626;53.866;30.298;2023-07-16T23:10:58;1023.7;;;19.4;56.1
57799;BME280;43626;53.866;30.298;2023-07-16T23:15:50;1023.7;;;19.4;56.1
57799;BME280;43626;53.866;30.298;2023-07-16T23:20:58;1023.7;;;19.3;56
57799;BME280;43626;53.866;30.298;2023-07-16T23:25:42;1023.7;;;19.3;55.9
57799;BME280;43626;53.866;30.298;2023-07-16T23:30:10;1023.6;;;19.3;55.8
57799;BME280;43626;53.866;30.298;2023-07-16T23:35:12;1023.6;;;19.2;55.8
57799;BME280;43626;53.866;30.298;2023-07-16T23:40:58;1023.6;;;19.1;56.2
57799;BME280;43626;53.866;30.298;2023-07-16T23:45:38;1023.6;;;19.1;56.9
57799;BME280;43626;53.866;30.298;2023-07-16T23:50:30;1023.6;;;19;57.1
57799;BME280;43626;53.866;30.298;2023-07-16T23:55:58;1023.7;;;19;57
